Time;durP1;ratioP1;P1;durP2;ratioP2;P2;SDS_P1;SDS_P2;PMS_P1;PMS_P2;Temp;Humidity;BMP_temperature;BMP_pressure;BME280_temperature;BME280_humidity;BME280_pressure;Samples;Min_cycle;Max_cycle;Signal;HPM_P1;HPM_P2
2023/06/14 00:00:16;;;;;;;;;;;;;;;;;;5074341;28;19972;-69
2023/06/14 00:02:42;;;;;;;;;;;;;;;;;;5072730;28;20354;-70
2023/06/14 00:05:08;;;;;;;;;;;;;;;;;;5073645;28;19924;-69
2023/06/14 00:07:33;;;;;;;;;;;;;;;;;;5072099;28;19920;-70
2023/06/14 00:09:59;;;;;;;;;;;;;;;;;;5074529;28;19920;-70
2023/06/14 00:12:26;;;;;;;;;;;;;;;;;;5072943;28;19920;-71
2023/06/14 00:14:52;;;;;;;;;;;;;;;;;;5073946;28;19969;-69
2023/06/14 00:17:18;;;;;;;;;;;;;;;;;;5071091;28;19924;-70
2023/06/14 00:19:44;;;;;;;;;;;;;;;;;;5055969;28;19920;-69
2023/06/14 00:22:10;;;;;;;;;;;;;;;;;;5074077;28;19986;-69
2023/06/14 00:24:36;;;;;;;;;;;;;;;;;;5072864;28;19921;-70
2023/06/14 00:27:02;;;;;;;;;;;;;;;;;;5073260;28;20331;-71
2023/06/14 00:29:28;;;;;;;;;;;;;;;;;;5070251;28;19959;-69
2023/06/14 00:31:54;;;;;;;;;;;;;;;;;;5073675;28;19974;-71
2023/06/14 00:34:20;;;;;;;;;;;;;;;;;;5071908;28;19920;-71
2023/06/14 00:36:46;;;;;;;;;;;;;;;;;;5072300;28;19931;-68
2023/06/14 00:39:12;;;;;;;;;;;;;;;;;;5072567;28;19973;-71
2023/06/14 00:41:38;;;;;;;;;;;;;;;;;;5073583;28;20288;-70
2023/06/14 00:44:04;;;;;;;;;;;;;;;;;;5074005;28;19927;-70
2023/06/14 00:46:30;;;;;;;;;;;;;;;;;;5063319;28;19921;-70
2023/06/14 00:48:56;;;;;;;;;;;;;;;;;;5072254;28;20288;-70
2023/06/14 00:51:22;;;;;;;;;;;;;;;;;;5073437;28;20021;-70
2023/06/14 00:53:48;;;;;;;;;;;;;;;;;;5073597;28;19920;-70
2023/06/14 00:56:14;;;;;;;;;;;;;;;;;;5071281;28;19920;-71
2023/06/14 00:58:40;;;;;;;;;;;;;;;;;;5073107;28;20291;-70
2023/06/14 01:01:06;;;;;;;;;;;;;;;;;;5054375;28;19920;-70
2023/06/14 01:03:33;;;;;;;;;;;;;;;;;;5052933;28;19924;-70
2023/06/14 01:06:02;;;;;;;;;;;;;;;;;;5052094;28;19920;-71
2023/06/14 01:08:28;;;;;;;;;;;;;;;;;;5052031;28;19920;-70
2023/06/14 01:10:54;;;;;;;;;;;;;;;;;;5059582;28;19943;-69
2023/06/14 01:13:20;;;;;;;;;;;;;;;;;;5053005;28;19966;-70
2023/06/14 01:15:46;;;;;;;;;;;;;;;;;;5053507;28;20321;-70
2023/06/14 01:18:17;;;;;;;;;;;15.20;99.90;;;;;;5036485;28;19987;-70
2023/06/14 01:20:44;;;;;;;;;;;15.10;90.40;;;;;;5054377;28;20288;-69
2023/06/14 01:23:13;;;;;;;;;;;15.40;87.90;;;;;;5073294;28;19932;-70
2023/06/14 01:25:40;;;;;;;;;;;15.30;86.10;;;;;;5072915;28;19920;-70
2023/06/14 01:28:12;;;;;;;;;;;15.30;86.40;;;;;;5072181;28;20398;-69
2023/06/14 01:30:47;;;;;;;;;;;15.20;85.80;;;;;;5070208;28;19920;-70
2023/06/14 01:33:14;;;;;;;;;;;15.20;86.30;;;;;;5051900;28;19921;-70
2023/06/14 01:35:41;;;;;;;;;;;15.20;85.00;;;;;;5085652;28;20281;-69
2023/06/14 01:38:07;;;;;;;;;;;15.10;84.60;;;;;;5068274;28;20264;-69
2023/06/14 01:40:34;;;;;;;;;;;15.10;88.10;;;;;;5071765;28;19974;-70
2023/06/14 01:43:01;;;;;;;;;;;15.10;87.60;;;;;;5071014;28;19966;-70
2023/06/14 01:45:27;;;;;;;;;;;15.10;86.00;;;;;;5072329;28;20011;-70
2023/06/14 01:47:52;;;;;;;;;;;15.00;85.60;;;;;;5072604;28;20367;-70
2023/06/14 01:50:19;;;;;;;;;;;15.00;86.80;;;;;;5071960;28;19921;-70
2023/06/14 01:52:45;;;;;;;;;;;14.90;89.00;;;;;;5066980;28;20007;-70
2023/06/14 01:55:11;;;;;;;;;;;;;;;;;;5051817;28;20359;-70
2023/06/14 01:57:37;;;;;;;;;;;;;;;;;;5052554;28;19931;-68
2023/06/14 02:00:03;;;;;;;;;;;;;;;;;;5084590;28;20376;-71
2023/06/14 02:02:29;;;;;;;;;;;;;;;;;;5052429;28;19965;-70
2023/06/14 02:04:57;;;;;;;;;;;;;;;;;;5052616;28;19924;-69
2023/06/14 02:07:23;;;;;;;;;;;;;;;;;;5052923;28;19921;-71
2023/06/14 02:09:49;;;;;;;;;;;;;;;;;;5059111;28;19921;-70
2023/06/14 02:12:15;;;;;;;;;;;;;;;;;;5085158;28;19921;-72
2023/06/14 02:14:41;;;;;;;;;;;;;;;;;;5084913;28;19940;-70
2023/06/14 02:17:07;;;;;;;;;;;;;;;;;;5051886;28;20013;-70
2023/06/14 02:19:33;;;;;;;;;;;;;;;;;;5056622;28;20285;-69
2023/06/14 02:22:00;;;;;;;;;;;;;;;;;;5072810;28;20015;-70
2023/06/14 02:24:26;;;;;;;;;;;;;;;;;;5054940;28;20368;-70
2023/06/14 02:26:52;;;;;;;;;;;;;;;;;;5065400;28;19921;-70
2023/06/14 02:29:18;;;;;;;;;;;;;;;;;;5085656;28;20020;-71
2023/06/14 02:31:46;;;;;;;;;;;;;;;;;;5071351;28;20019;-70
2023/06/14 02:34:12;;;;;;;;;;;;;;;;;;5072931;28;19970;-79
2023/06/14 02:36:41;;;;;;;;;;;;;;;;;;5074482;28;19920;-81
2023/06/14 02:39:07;;;;;;;;;;;;;;;;;;5074838;28;19921;-76
2023/06/14 02:41:33;;;;;;;;;;;;;;;;;;5074325;28;19974;-79
2023/06/14 02:43:59;;;;;;;;;;;;;;;;;;5075370;28;19920;-81
2023/06/14 02:46:25;;;;;;;;;;;14.50;99.90;;;;;;5074687;28;19920;-79
2023/06/14 02:48:53;;;;;;;;;;;14.10;99.90;;;;;;5074267;28;19978;-79
2023/06/14 02:51:19;;;;;;;;;;;14.30;99.90;;;;;;5073241;28;20041;-81
2023/06/14 02:53:44;;;;;;;;;;;14.50;99.90;;;;;;5075499;28;19968;-81
2023/06/14 02:56:11;;;;;;;;;;;14.30;99.90;;;;;;5076986;28;19924;-79
2023/06/14 02:58:37;;;;;;;;;;;14.30;99.40;;;;;;5078347;28;19924;-80
2023/06/14 03:01:05;;;;;;;;;;;14.40;99.90;;;;;;5077653;28;19928;-80
2023/06/14 03:03:31;;;;;;;;;;;13.90;99.80;;;;;;5076330;28;19931;-80
2023/06/14 03:05:57;;;;;;;;;;;14.20;98.70;;;;;;5093336;28;19920;-80
2023/06/14 03:08:27;;;;;;;;;;;14.00;98.30;;;;;;5076074;28;20011;-80
2023/06/14 03:10:53;;;;;;;;;;;;;;;;;;5076976;28;19931;-81
2023/06/14 03:13:21;;;;;;;;;;;14.20;99.90;;;;;;5076544;28;19920;-82
2023/06/14 03:15:47;;;;;;;;;;;14.20;99.90;;;;;;5109866;28;19920;-77
2023/06/14 03:18:14;;;;;;;;;;;14.20;99.90;;;;;;5075782;28;20253;-80
2023/06/14 03:20:40;;;;;;;;;;;14.20;99.90;;;;;;5059503;28;19920;-80
2023/06/14 03:23:06;;;;;;;;;;;14.20;99.90;;;;;;5075775;28;20042;-77
2023/06/14 03:25:34;;;;;;;;;;;14.20;99.90;;;;;;5075929;28;19927;-79
2023/06/14 03:27:59;;;;;;;;;;;14.10;99.90;;;;;;5077541;28;20382;-77
2023/06/14 03:30:25;;;;;;;;;;;14.20;99.90;;;;;;5076002;28;20033;-79
2023/06/14 03:32:52;;;;;;;;;;;14.40;99.90;;;;;;5075874;28;19924;-80
2023/06/14 03:35:18;;;;;;;;;;;14.20;99.90;;;;;;5076188;28;19920;-78
2023/06/14 03:37:45;;;;;;;;;;;14.40;99.90;;;;;;5077444;28;19927;-79
2023/06/14 03:40:11;;;;;;;;;;;14.20;99.90;;;;;;5076401;28;19924;-79
2023/06/14 03:42:38;;;;;;;;;;;;;;;;;;5075389;28;19924;-80
2023/06/14 03:45:04;;;;;;;;;;;14.30;99.90;;;;;;5075672;28;19920;-79
2023/06/14 03:47:29;;;;;;;;;;;14.50;99.90;;;;;;5076120;28;19920;-79
2023/06/14 03:49:56;;;;;;;;;;;;;;;;;;5074480;28;20360;-78
2023/06/14 03:52:23;;;;;;;;;;;;;;;;;;5075496;28;19971;-77
2023/06/14 03:54:49;;;;;;;;;;;;;;;;;;5075179;28;19926;-78
2023/06/14 03:57:15;;;;;;;;;;;;;;;;;;5075660;28;19921;-81
2023/06/14 03:59:41;;;;;;;;;;;;;;;;;;5076623;28;19931;-81
2023/06/14 04:02:09;;;;;;;;;;;;;;;;;;5075239;28;19920;-79
2023/06/14 04:04:35;;;;;;;;;;;;;;;;;;5076253;28;20347;-76
2023/06/14 04:07:03;;;;;;;;;;;;;;;;;;5074861;28;20062;-79
2023/06/14 04:09:29;;;;;;;;;;;;;;;;;;5075599;28;19921;-78
2023/06/14 04:11:55;;;;;;;;;;;;;;;;;;5075283;28;20276;-76
2023/06/14 04:14:21;;;;;;;;;;;;;;;;;;5076328;28;19924;-74
2023/06/14 04:16:47;;;;;;;;;;;;;;;;;;5074982;28;19939;-79
2023/06/14 04:19:13;;;;;;;;;;;;;;;;;;5076768;28;20016;-77
2023/06/14 04:21:39;;;;;;;;;;;;;;;;;;5058059;28;19926;-79
2023/06/14 04:24:05;;;;;;;;;;;;;;;;;;5075161;28;20015;-78
2023/06/14 04:26:33;;;;;;;;;;;;;;;;;;5075918;28;19963;-75
2023/06/14 04:29:01;;;;;;;;;;;;;;;;;;5075355;28;19920;-75
2023/06/14 04:31:29;;;;;;;;;;;;;;;;;;5075383;28;20268;-77
2023/06/14 04:33:55;;;;;;;;;;;;;;;;;;5076825;28;20335;-77
2023/06/14 04:36:21;;;;;;;;;;;;;;;;;;5074640;28;19924;-76
2023/06/14 04:38:48;;;;;;;;;;;;;;;;;;5075774;28;19920;-78
2023/06/14 04:41:15;;;;;;;;;;;;;;;;;;5076880;28;19921;-78
2023/06/14 04:43:42;;;;;;;;;;;;;;;;;;5076502;28;19924;-79
2023/06/14 04:46:09;;;;;;;;;;;;;;;;;;5076882;28;19927;-78
2023/06/14 04:48:35;;;;;;;;;;;;;;;;;;5077265;28;20284;-76
2023/06/14 04:51:03;;;;;;;;;;;;;;;;;;5077045;28;20016;-75
2023/06/14 04:53:31;;;;;;;;;;;;;;;;;;5074935;28;19967;-76
2023/06/14 04:55:57;;;;;;;;;;;;;;;;;;5075652;28;19924;-77
2023/06/14 04:58:23;;;;;;;;;;;;;;;;;;5076031;28;20347;-77
2023/06/14 05:00:49;;;;;;;;;;;;;;;;;;5075626;28;20011;-76
2023/06/14 05:03:15;;;;;;;;;;;;;;;;;;5074880;28;20407;-75
2023/06/14 05:05:41;;;;;;;;;;;;;;;;;;5074921;28;19933;-80
2023/06/14 05:08:08;;;;;;;;;;;;;;;;;;5074506;28;19920;-78
2023/06/14 05:10:35;;;;;;;;;;;;;;;;;;5074229;28;19924;-78
2023/06/14 05:13:01;;;;;;;;;;;;;;;;;;5057618;28;19924;-78
2023/06/14 05:15:28;;;;;;;;;;;;;;;;;;5075191;28;20264;-76
2023/06/14 05:17:55;;;;;;;;;;;;;;;;;;5073913;28;19920;-74
2023/06/14 05:20:21;;;;;;;;;;;;;;;;;;5075395;28;19924;-79
2023/06/14 05:22:48;;;;;;;;;;;;;;;;;;5075740;28;19942;-75
2023/06/14 05:25:14;;;;;;;;;;;;;;;;;;5074422;28;19921;-77
2023/06/14 05:27:41;;;;;;;;;;;;;;;;;;5074596;28;20261;-77
2023/06/14 05:30:08;;;;;;;;;;;;;;;;;;5074489;28;19942;-75
2023/06/14 05:32:34;;;;;;;;;;;;;;;;;;5073387;28;19921;-76
2023/06/14 05:35:03;;;;;;;;;;;;;;;;;;5073756;28;19920;-77
2023/06/14 05:37:30;;;;;;;;;;;;;;;;;;5073394;28;19924;-77
2023/06/14 05:39:56;;;;;;;;;;;;;;;;;;5057398;28;19920;-80
2023/06/14 05:42:22;;;;;;;;;;;;;;;;;;5074509;28;20292;-76
2023/06/14 05:44:48;;;;;;;;;;;;;;;;;;5074526;28;19920;-78
2023/06/14 05:47:15;;;;;;;;;;;;;;;;;;5074448;28;20264;-79
2023/06/14 05:49:41;;;;;;;;;;;;;;;;;;5073026;28;19953;-79
2023/06/14 05:52:07;;;;;;;;;;;;;;;;;;5074554;28;19921;-79
2023/06/14 05:54:33;;;;;;;;;;;;;;;;;;5073261;28;20296;-76
2023/06/14 05:57:01;;;;;;;;;;;;;;;;;;5073158;28;20011;-78
2023/06/14 05:59:27;;;;;;;;;;;;;;;;;;5074126;28;19963;-76
2023/06/14 06:01:53;;;;;;;;;;;;;;;;;;5074287;28;19974;-76
2023/06/14 06:04:19;;;;;;;;;;;;;;;;;;5073388;28;19920;-77
2023/06/14 06:06:46;;;;;;;;;;;;;;;;;;5073069;28;20245;-76
2023/06/14 06:09:14;;;;;;;;;;;;;;;;;;5072756;28;19921;-75
2023/06/14 06:11:40;;;;;;;;;;;;;;;;;;5056479;28;19921;-77
2023/06/14 06:14:06;;;;;;;;;;;;;;;;;;5056748;28;19974;-74
2023/06/14 06:16:32;;;;;;;;;;;;;;;;;;5073992;28;19928;-78
2023/06/14 06:18:59;;;;;;;;;;;;;;;;;;5076014;28;19921;-79
2023/06/14 06:21:25;;;;;;;;;;;;;;;;;;5076067;28;19980;-75
2023/06/14 06:23:51;;;;;;;;;;;;;;;;;;5079124;28;19929;-77
2023/06/14 06:26:17;;;;;;;;;;;;;;;;;;5079727;28;19920;-74
2023/06/14 06:28:43;;;;;;;;;;;;;;;;;;5077295;28;19966;-77
2023/06/14 06:31:11;;;;;;;;;;;;;;;;;;5075537;28;19920;-76
2023/06/14 06:33:37;;;;;;;;;;;;;;;;;;5077663;28;19933;-78
2023/06/14 06:36:03;;;;;;;;;;;;;;;;;;5076696;28;19924;-75
2023/06/14 06:38:29;;;;;;;;;;;;;;;;;;5078156;28;20326;-77
2023/06/14 06:40:56;;;;;;;;;;;;;;;;;;5077048;28;19924;-77
2023/06/14 06:43:22;;;;;;;;;;;;;;;;;;5077375;28;19927;-74
2023/06/14 06:45:48;;;;;;;;;;;;;;;;;;5077655;28;19920;-74
2023/06/14 06:48:15;;;;;;;;;;;;;;;;;;5059823;28;20377;-77
2023/06/14 06:50:41;;;;;;;;;;;;;;;;;;5076721;28;20002;-76
2023/06/14 06:53:08;;;;;;;;;;;;;;;;;;5059845;28;20427;-76
2023/06/14 06:55:34;;;;;;;;;;;;;;;;;;5078026;28;19974;-77
2023/06/14 06:58:00;;;;;;;;;;;;;;;;;;5076064;28;20424;-75
2023/06/14 07:00:26;;;;;;;;;;;;;;;;;;5076255;28;20352;-75
2023/06/14 07:02:54;;;;;;;;;;;;;;;;;;5076097;28;19967;-76
2023/06/14 07:05:20;;;;;;;;;;;;;;;;;;5076069;28;20352;-75
2023/06/14 07:07:47;;;;;;;;;;;;;;;;;;5076297;28;19943;-76
2023/06/14 07:10:13;;;;;;;;;;;;;;;;;;5075886;28;19920;-75
2023/06/14 07:12:39;;;;;;;;;;;;;;;;;;5076508;28;20295;-76
2023/06/14 07:15:06;;;;;;;;;;;;;;;;;;5075649;28;19960;-75
2023/06/14 07:17:33;;;;;;;;;;;;;;;;;;5077078;28;20311;-75
2023/06/14 07:19:59;;;;;;;;;;;;;;;;;;5076809;28;19920;-75
2023/06/14 07:22:25;;;;;;;;;;;;;;;;;;5075727;28;19985;-77
2023/06/14 07:24:51;;;;;;;;;;;;;;;;;;5077018;28;19924;-75
2023/06/14 07:27:17;;;;;;;;;;;;;;;;;;5059796;28;20264;-80
2023/06/14 07:29:43;;;;;;;;;;;;;;;;;;5059895;28;19921;-77
2023/06/14 07:32:09;;;;;;;;;;;;;;;;;;5077761;28;20368;-77
2023/06/14 07:34:35;;;;;;;;;;;;;;;;;;5076766;28;19970;-76
2023/06/14 07:37:02;;;;;;;;;;;;;;;;;;5077536;28;19925;-76
2023/06/14 07:39:28;;;;;;;;;;;;;;;;;;5075743;28;19978;-76
2023/06/14 07:41:54;;;;;;;;;;;;;;;;;;5076676;28;20322;-78
2023/06/14 07:44:20;;;;;;;;;;;;;;;;;;5075606;28;19920;-79
2023/06/14 07:46:49;;;;;;;;;;;;;;;;;;5076616;28;19921;-77
2023/06/14 07:49:15;;;;;;;;;;;;;;;;;;5075902;28;19931;-79
2023/06/14 07:51:41;;;;;;;;;;;;;;;;;;5076235;28;19924;-76
2023/06/14 07:54:08;;;;;;;;;;;;;;;;;;5075240;28;20417;-76
2023/06/14 07:56:35;;;;;;;;;;;;;;;;;;5076292;28;19946;-77
2023/06/14 07:59:01;;;;;;;;;;;;;;;;;;5076340;28;20019;-77
2023/06/14 08:01:28;;;;;;;;;;;;;;;;;;5058090;28;20013;-75
2023/06/14 08:03:54;;;;;;;;;;;;;;;;;;5074756;28;19990;-80
2023/06/14 08:06:20;;;;;;;;;;;;;;;;;;5076302;28;19928;-77
2023/06/14 08:08:46;;;;;;;;;;;;;;;;;;5074513;28;19926;-75
2023/06/14 08:11:12;;;;;;;;;;;;;;;;;;5074903;28;20411;-79
2023/06/14 08:13:38;;;;;;;;;;;;;;;;;;5075739;28;19920;-77
2023/06/14 08:16:05;;;;;;;;;;;;;;;;;;5075180;28;20336;-75
2023/06/14 08:18:31;;;;;;;;;;;;;;;;;;5074592;28;19924;-74
2023/06/14 08:20:57;;;;;;;;;;;;;;;;;;5074656;28;19927;-73
2023/06/14 08:23:23;;;;;;;;;;;;;;;;;;5058877;28;19924;-75
2023/06/14 08:25:49;;;;;;;;;;;;;;;;;;5075518;28;19920;-77
2023/06/14 08:28:15;;;;;;;;;;;;;;;;;;5075480;28;19920;-81
2023/06/14 08:30:42;;;;;;;;;;;;;;;;;;5075447;28;19928;-75
2023/06/14 08:33:08;;;;;;;;;;;;;;;;;;5058975;28;19921;-75
2023/06/14 08:35:36;;;;;;;;;;;;;;;;;;5075691;28;19927;-75
2023/06/14 08:38:03;;;;;;;;;;;;;;;;;;5074443;28;20394;-75
2023/06/14 08:40:29;;;;;;;;;;;;;;;;;;5075593;28;20011;-76
2023/06/14 08:42:55;;;;;;;;;;;;;;;;;;5078169;28;19951;-75
2023/06/14 08:45:21;;;;;;;;;;;;;;;;;;5060463;28;20296;-77
2023/06/14 08:47:51;;;;;;;;;;;;;;;;;;5077269;28;19920;-78
2023/06/14 08:50:19;;;;;;;;;;;;;;;;;;5076115;28;19920;-79
2023/06/14 08:52:50;;;;;;;;;;;;;;;;;;5076059;28;19920;-77
2023/06/14 08:55:17;;;;;;;;;;;;;;;;;;5075256;28;19939;-74
2023/06/14 08:57:43;;;;;;;;;;;;;;;;;;5077050;28;20015;-76
2023/06/14 09:00:12;;;;;;;;;;;;;;;;;;5077383;28;19967;-72
2023/06/14 09:02:43;;;;;;;;;;;;;;;;;;5074760;28;19920;-75
2023/06/14 09:05:09;;;;;;;;;;;;;;;;;;5074044;28;19968;-74
2023/06/14 09:07:36;;;;;;;;;;;;;;;;;;5074696;28;19921;-73
2023/06/14 09:10:02;;;;;;;;;;;;;;;;;;5073391;28;19965;-74
2023/06/14 09:12:28;;;;;;;;;;;;;;;;;;5074643;28;20015;-75
2023/06/14 09:14:54;;;;;;;;;;;;;;;;;;5074142;28;19928;-74
2023/06/14 09:17:20;;;;;;;;;;;;;;;;;;5057834;28;19920;-79
2023/06/14 09:19:46;;;;;;;;;;;;;;;;;;5075441;28;19920;-73
2023/06/14 09:22:12;;;;;;;;;;;;;;;;;;5075152;28;19928;-74
2023/06/14 09:24:38;;;;;;;;;;;;;;;;;;5074966;28;19920;-77
2023/06/14 09:27:04;;;;;;;;;;;;;;;;;;5074060;28;20016;-76
2023/06/14 09:29:31;;;;;;;;;;;;;;;;;;5073998;28;20432;-75
2023/06/14 09:31:57;;;;;;;;;;;;;;;;;;5074606;28;20000;-77
2023/06/14 09:34:23;;;;;;;;;;;;;;;;;;5074364;28;19920;-75
2023/06/14 09:36:50;;;;;;;;;;;;;;;;;;5073318;28;19964;-78
2023/06/14 09:39:16;;;;;;;;;;;;;;;;;;5073509;28;19971;-73
2023/06/14 09:41:43;;;;;;;;;;;;;;;;;;5073818;28;19920;-74
2023/06/14 09:44:09;;;;;;;;;;;;;;;;;;5073405;28;19927;-74
2023/06/14 09:46:35;;;;;;;;;;;;;;;;;;5074917;28;19921;-76
2023/06/14 09:49:01;;;;;;;;;;;;;;;;;;5074388;28;19925;-76
2023/06/14 09:51:27;;;;;;;;;;;;;;;;;;5073987;28;20287;-77
2023/06/14 09:53:53;;;;;;;;;;;;;;;;;;5074433;28;20003;-75
2023/06/14 09:56:19;;;;;;;;;;;;;;;;;;5073066;28;19920;-72
2023/06/14 09:58:45;;;;;;;;;;;;;;;;;;5073836;28;20368;-74
2023/06/14 10:01:13;;;;;;;;;;;;;;;;;;5074925;28;20400;-75
2023/06/14 10:03:39;;;;;;;;;;;;;;;;;;5073850;28;20427;-72
2023/06/14 10:06:05;;;;;;;;;;;;;;;;;;5076835;28;19967;-78
2023/06/14 10:08:33;;;;;;;;;;;;;;;;;;5078680;28;20361;-75
2023/06/14 10:10:59;;;;;;;;;;;;;;;;;;5078757;28;19973;-74
2023/06/14 10:13:25;;;;;;;;;;;;;;;;;;5078200;28;20319;-77
2023/06/14 10:15:51;;;;;;;;;;;;;;;;;;5079066;28;19924;-76
2023/06/14 10:18:20;;;;;;;;;;;;;;;;;;5078630;28;20288;-76
2023/06/14 10:20:46;;;;;;;;;;;;;;;;;;5079070;28;19920;-74
2023/06/14 10:23:12;;;;;;;;;;;;;;;;;;5078379;28;19920;-75
2023/06/14 10:25:38;;;;;;;;;;;;;;;;;;5078888;28;19921;-74
2023/06/14 10:28:05;;;;;;;;;;;;;;;;;;5079678;28;19983;-75
2023/06/14 10:30:31;;;;;;;;;;;;;;;;;;5080457;28;19931;-78
2023/06/14 10:32:57;;;;;;;;;;;;;;;;;;5080384;28;19920;-73
2023/06/14 10:35:23;;;;;;;;;;;;;;;;;;5082314;28;19924;-74
2023/06/14 10:37:49;;;;;;;;;;;;;;;;;;5082971;28;20364;-79
2023/06/14 10:40:15;;;;;;;;;;;;;;;;;;5080620;28;19921;-75
2023/06/14 10:42:41;;;;;;;;;;;;;;;;;;5079899;28;20029;-76
2023/06/14 10:45:07;;;;;;;;;;;;;;;;;;5078902;28;20268;-72
2023/06/14 10:47:34;;;;;;;;;;;;;;;;;;5078457;28;19927;-72
2023/06/14 10:50:00;;;;;;;;;;;;;;;;;;5076243;28;20070;-75
2023/06/14 10:52:27;;;;;;;;;;;;;;;;;;5076335;28;19920;-75
2023/06/14 10:54:53;;;;;;;;;;;;;;;;;;5076960;28;19924;-76
2023/06/14 10:57:20;;;;;;;;;;;;;;;;;;5077545;28;19974;-73
2023/06/14 10:59:46;;;;;;;;;;;;;;;;;;5077144;28;19927;-77
2023/06/14 11:02:12;;;;;;;;;;;;;;;;;;5076077;28;19920;-77
2023/06/14 11:04:38;;;;;;;;;;;;;;;;;;5077440;28;19920;-76
2023/06/14 11:07:04;;;;;;;;;;;;;;;;;;5077061;28;20246;-73
2023/06/14 11:09:32;;;;;;;;;;;;;;;;;;5076815;28;19969;-76
2023/06/14 11:11:58;;;;;;;;;;;;;;;;;;5076914;28;19965;-73
2023/06/14 11:14:24;;;;;;;;;;;;;;;;;;5077289;28;20002;-76
2023/06/14 11:16:49;;;;;;;;;;;;;;;;;;5076395;28;19927;-72
2023/06/14 11:19:17;;;;;;;;;;;;;;;;;;5059200;28;19920;-79
2023/06/14 11:21:43;;;;;;;;;;;;;;;;;;5059400;28;19927;-74
2023/06/14 11:24:09;;;;;;;;;;;;;;;;;;5076747;28;19920;-75
2023/06/14 11:26:35;;;;;;;;;;;;;;;;;;5077419;28;19920;-71
2023/06/14 11:29:01;;;;;;;;;;;;;;;;;;5076954;28;19971;-75
2023/06/14 11:31:27;;;;;;;;;;;;;;;;;;5077549;28;20360;-75
2023/06/14 11:33:53;;;;;;;;;;;;;;;;;;5076266;28;19921;-74
2023/06/14 11:36:19;;;;;;;;;;;;;;;;;;5075827;28;19928;-77
2023/06/14 11:38:45;;;;;;;;;;;;;;;;;;5076381;28;19921;-78
2023/06/14 11:41:11;;;;;;;;;;;;;;;;;;5075540;28;19931;-73
2023/06/14 11:43:37;;;;;;;;;;;;;;;;;;5058585;28;20025;-76
2023/06/14 11:46:03;;;;;;;;;;;;;;;;;;5075389;28;19983;-76
2023/06/14 11:48:29;;;;;;;;;;;;;;;;;;5058432;28;19920;-75
2023/06/14 11:50:55;;;;;;;;;;;;;;;;;;5076049;28;20473;-75
2023/06/14 11:53:21;;;;;;;;;;;;;;;;;;5058988;28;19928;-76
2023/06/14 11:55:47;;;;;;;;;;;;;;;;;;5074924;28;20021;-73
2023/06/14 11:58:14;;;;;;;;;;;;;;;;;;5076269;28;20364;-75
2023/06/14 12:00:40;;;;;;;;;;;;;;;;;;5075738;28;20341;-75
2023/06/14 12:03:06;;;;;;;;;;;;;;;;;;5076677;28;19920;-74
2023/06/14 12:05:32;;;;;;;;;;;;;;;;;;5078348;28;19920;-77
2023/06/14 12:07:58;;;;;;;;;;;;;;;;;;5079297;28;19973;-73
2023/06/14 12:10:24;;;;;;;;;;;;;;;;;;5077946;28;19920;-76
2023/06/14 12:12:50;;;;;;;;;;;;;;;;;;5079619;28;19931;-75
2023/06/14 12:15:16;;;;;;;;;;;;;;;;;;5077974;28;20004;-74
2023/06/14 12:17:43;;;;;;;;;;;;;;;;;;5076953;28;19939;-75
2023/06/14 12:20:13;;;;;;;;;;;;;;;;;;5079329;28;19978;-78
2023/06/14 12:22:39;;;;;;;;;;;;;;;;;;5076475;28;19977;-75
2023/06/14 12:25:05;;;;;;;;;;;;;;;;;;5060351;28;19925;-75
2023/06/14 12:27:31;;;;;;;;;;;;;;;;;;5076214;28;19920;-74
2023/06/14 12:29:57;;;;;;;;;;;;;;;;;;5074874;28;19920;-76
2023/06/14 12:32:23;;;;;;;;;;;;;;;;;;5074630;28;19920;-74
2023/06/14 12:34:49;;;;;;;;;;;;;;;;;;5075184;28;19928;-78
2023/06/14 12:37:15;;;;;;;;;;;;;;;;;;5075574;28;19927;-76
2023/06/14 12:39:42;;;;;;;;;;;;;;;;;;5074456;28;19920;-79
2023/06/14 12:42:08;;;;;;;;;;;;;;;;;;5074528;28;19920;-76
2023/06/14 12:44:35;;;;;;;;;;;;;;;;;;5057889;28;19927;-75
2023/06/14 12:47:01;;;;;;;;;;;;;;;;;;5074264;28;20280;-76
2023/06/14 12:49:27;;;;;;;;;;;;;;;;;;5076013;28;19920;-74
2023/06/14 12:51:53;;;;;;;;;;;;;;;;;;5074819;28;19927;-73
2023/06/14 12:54:22;;;;;;;;;;;;;;;;;;5074823;28;20353;-72
2023/06/14 12:56:48;;;;;;;;;;;;;;;;;;5074016;28;20311;-74
2023/06/14 12:59:14;;;;;;;;;;;;;;;;;;5073444;28;19920;-77
2023/06/14 13:01:40;;;;;;;;;;;;;;;;;;5074585;28;19920;-75
2023/06/14 13:04:06;;;;;;;;;;;;;;;;;;5074675;28;20019;-73
2023/06/14 13:06:32;;;;;;;;;;;;;;;;;;5074773;28;20387;-74
2023/06/14 13:08:58;;;;;;;;;;;;;;;;;;5075027;28;20030;-77
2023/06/14 13:11:25;;;;;;;;;;;;;;;;;;5074665;28;19920;-75
2023/06/14 13:13:50;;;;;;;;;;;;;;;;;;5074575;28;19930;-75
2023/06/14 13:16:16;;;;;;;;;;;;;;;;;;5074449;28;19921;-75
2023/06/14 13:18:42;;;;;;;;;;;;;;;;;;5073759;28;19927;-73
2023/06/14 13:21:08;;;;;;;;;;;;;;;;;;5074221;28;19927;-77
2023/06/14 13:23:34;;;;;;;;;;;;;;;;;;5075112;28;19920;-75
2023/06/14 13:26:00;;;;;;;;;;;;;;;;;;5073395;28;19931;-74
2023/06/14 13:28:26;;;;;;;;;;;;;;;;;;5074432;28;19920;-76
2023/06/14 13:30:52;;;;;;;;;;;;;;;;;;5073463;28;20335;-74
2023/06/14 13:33:18;;;;;;;;;;;;;;;;;;5073976;28;19973;-73
2023/06/14 13:35:44;;;;;;;;;;;;;;;;;;5073230;28;19920;-76
2023/06/14 13:38:11;;;;;;;;;;;;;;;;;;5056067;28;19979;-74
2023/06/14 13:40:36;;;;;;;;;;;;;;;;;;5073713;28;20385;-73
2023/06/14 13:43:02;;;;;;;;;;;;;;;;;;5074120;28;19982;-79
2023/06/14 13:45:29;;;;;;;;;;;;;;;;;;5074259;28;20003;-74
2023/06/14 13:47:55;;;;;;;;;;;;;;;;;;5073663;28;20276;-76
2023/06/14 13:50:22;;;;;;;;;;;;;;;;;;5074444;28;19960;-73
2023/06/14 13:52:48;;;;;;;;;;;;;;;;;;5073974;28;19971;-76
2023/06/14 13:55:14;;;;;;;;;;;;;;;;;;5072657;28;20007;-80
2023/06/14 13:57:44;;;;;;;;;;;;;;;;;;5074723;28;19926;-80
2023/06/14 14:00:11;;;;;;;;;;;;;;;;;;5073509;28;19971;-73
2023/06/14 14:02:36;;;;;;;;;;;;;;;;;;5072710;28;20383;-75
2023/06/14 14:05:02;;;;;;;;;;;;;;;;;;5073625;28;20014;-76
2023/06/14 14:07:29;;;;;;;;;;;;;;;;;;5072928;28;19920;-78
2023/06/14 14:09:57;;;;;;;;;;;;;;;;;;5055813;28;20014;-73
2023/06/14 14:12:23;;;;;;;;;;;;;;;;;;5073162;28;19970;-74
2023/06/14 14:14:50;;;;;;;;;;;;;;;;;;5073632;28;20062;-73
2023/06/14 14:17:16;;;;;;;;;;;;;;;;;;5072647;28;20252;-75
2023/06/14 14:19:42;;;;;;;;;;;;;;;;;;5056758;28;19924;-74
2023/06/14 14:22:08;;;;;;;;;;;;;;;;;;5072435;28;19970;-77
2023/06/14 14:24:34;;;;;;;;;;;;;;;;;;5072217;28;19967;-76
2023/06/14 14:27:00;;;;;;;;;;;;;;;;;;5073331;28;20241;-74
2023/06/14 14:29:28;;;;;;;;;;;;;;;;;;5073958;28;19921;-78
2023/06/14 14:31:55;;;;;;;;;;;;;;;;;;5055929;28;19966;-75
2023/06/14 14:34:21;;;;;;;;;;;;;;;;;;5073841;28;20023;-75
2023/06/14 14:36:47;;;;;;;;;;;;;;;;;;5073697;28;19975;-75
2023/06/14 14:39:13;;;;;;;;;;;;;;;;;;5074219;28;19920;-74
2023/06/14 14:41:39;;;;;;;;;;;;;;;;;;5073205;28;19920;-71
2023/06/14 14:44:05;;;;;;;;;;;;;;;;;;5055616;28;20390;-81
2023/06/14 14:46:31;;;;;;;;;;;;;;;;;;5072983;28;20371;-79
2023/06/14 14:48:57;;;;;;;;;;;;;;;;;;5072069;28;19963;-77
2023/06/14 14:51:23;;;;;;;;;;;;;;;;;;5074212;28;20322;-77
2023/06/14 14:53:49;;;;;;;;;;;;;;;;;;5077215;28;19920;-74
2023/06/14 14:56:16;;;;;;;;;;;;;;;;;;5076163;28;19927;-74
2023/06/14 14:58:43;;;;;;;;;;;;;;;;;;5075959;28;19920;-75
2023/06/14 15:01:09;;;;;;;;;;;;;;;;;;5059862;28;20390;-76
2023/06/14 15:03:35;;;;;;;;;;;;;;;;;;5076420;28;19924;-72
2023/06/14 15:06:01;;;;;;;;;;;;;;;;;;5077164;28;19978;-74
2023/06/14 15:08:27;;;;;;;;;;;;;;;;;;5075757;28;19926;-75
2023/06/14 15:10:53;;;;;;;;;;;;;;;;;;5077122;28;19975;-75
2023/06/14 15:13:19;;;;;;;;;;;;;;;;;;5076038;28;20376;-77
2023/06/14 15:15:45;;;;;;;;;;;;;;;;;;5075672;28;19968;-74
2023/06/14 15:18:11;;;;;;;;;;;;;;;;;;5076512;28;19945;-75
2023/06/14 15:20:37;;;;;;;;;;;;;;;;;;5076413;28;20011;-76
2023/06/14 15:23:03;;;;;;;;;;;;;;;;;;5076319;28;19968;-74
2023/06/14 15:25:30;;;;;;;;;;;;;;;;;;5076663;28;19924;-76
2023/06/14 15:27:56;;;;;;;;;;;;;;;;;;5076940;28;19920;-75
2023/06/14 15:30:22;;;;;;;;;;;;;;;;;;5076125;28;20299;-73
2023/06/14 15:32:48;;;;;;;;;;;;;;;;;;5076675;28;19926;-75
2023/06/14 15:35:14;;;;;;;;;;;;;;;;;;5076622;28;19946;-74
2023/06/14 15:37:40;;;;;;;;;;;;;;;;;;5075478;28;19928;-78
2023/06/14 15:40:06;;;;;;;;;;;;;;;;;;5076914;28;19934;-77
2023/06/14 15:42:32;;;;;;;;;;;;;;;;;;5059633;28;19972;-77
2023/06/14 15:44:58;;;;;;;;;;;;;;;;;;5076352;28;19920;-76
2023/06/14 15:47:24;;;;;;;;;;;;;;;;;;5076134;28;19966;-75
2023/06/14 15:49:50;;;;;;;;;;;;;;;;;;5076662;28;19931;-76
2023/06/14 15:52:16;;;;;;;;;;;;;;;;;;5075682;28;19922;-78
2023/06/14 15:54:42;;;;;;;;;;;;;;;;;;5058552;28;20042;-77
2023/06/14 15:57:09;;;;;;;;;;;;;;;;;;5076549;28;19927;-76
2023/06/14 15:59:35;;;;;;;;;;;;;;;;;;5075140;28;19926;-76
2023/06/14 16:02:01;;;;;;;;;;;;;;;;;;5058175;28;19920;-75
2023/06/14 16:04:27;;;;;;;;;;;;;;;;;;5075284;28;19946;-73
2023/06/14 16:06:53;;;;;;;;;;;;;;;;;;5074526;28;20364;-77
2023/06/14 16:09:19;;;;;;;;;;;;;;;;;;5075170;28;20422;-74
2023/06/14 16:11:45;;;;;;;;;;;;;;;;;;5058231;28;19921;-74
2023/06/14 16:14:11;;;;;;;;;;;;;;;;;;5057959;28;20268;-75
2023/06/14 16:16:37;;;;;;;;;;;;;;;;;;5073871;28;19927;-73
2023/06/14 16:19:04;;;;;;;;;;;;;;;;;;5075635;28;19920;-76
2023/06/14 16:21:33;;;;;;;;;;;;;;;;;;5075133;28;19928;-76